createdAt,value
2023-02-15T00:00:45.083Z,17.08
2023-02-15T00:03:11.476Z,16.83
2023-02-15T00:05:37.783Z,16.52
2023-02-15T00:08:04.274Z,17.77
2023-02-15T00:10:30.571Z,17.38
2023-02-15T00:12:56.903Z,18.15
2023-02-15T00:15:23.215Z,16.55
2023-02-15T00:17:49.523Z,18.08
2023-02-15T00:20:15.884Z,16.58
2023-02-15T00:22:42.187Z,17.10
2023-02-15T00:25:08.526Z,16.67
2023-02-15T00:27:34.799Z,16.88
2023-02-15T00:30:01.169Z,17.30
2023-02-15T00:32:27.472Z,17.60
2023-02-15T00:34:53.780Z,18.33
2023-02-15T00:37:20.081Z,17.17
2023-02-15T00:39:46.385Z,17.67
2023-02-15T00:42:12.679Z,18.05
2023-02-15T00:44:38.976Z,17.33
2023-02-15T00:47:05.274Z,17.42
2023-02-15T00:49:31.583Z,17.35
2023-02-15T00:51:57.877Z,18.42
2023-02-15T00:54:24.199Z,18.05
2023-02-15T00:56:50.526Z,19.13
2023-02-15T00:59:16.847Z,17.92
2023-02-15T01:01:43.218Z,18.30
2023-02-15T01:04:09.657Z,18.38
2023-02-15T01:06:36.045Z,18.92
2023-02-15T01:09:02.453Z,18.70
2023-02-15T01:11:28.744Z,19.95
2023-02-15T01:13:58.009Z,19.45
2023-02-15T01:16:27.056Z,18.67
2023-02-15T01:18:53.440Z,19.05
2023-02-15T01:21:21.685Z,20.85
2023-02-15T01:23:48.029Z,19.38
2023-02-15T01:26:15.328Z,19.52
2023-02-15T01:28:41.763Z,19.67
2023-02-15T01:31:10.592Z,19.35
2023-02-15T01:33:37.459Z,20.70
2023-02-15T01:36:05.070Z,18.90
2023-02-15T01:38:31.752Z,19.55
2023-02-15T01:40:58.056Z,19.23
2023-02-15T01:43:40.929Z,20.45
2023-02-15T01:46:09.952Z,20.88
2023-02-15T01:48:48.600Z,21.00
2023-02-15T01:51:18.867Z,19.70
2023-02-15T01:53:53.556Z,20.73
2023-02-15T01:56:28.502Z,21.05
2023-02-15T02:01:22.798Z,20.85
2023-02-15T02:04:24.053Z,20.58
2023-02-15T02:06:52.157Z,20.55
2023-02-15T02:09:18.502Z,22.42
2023-02-15T02:11:48.253Z,20.42
2023-02-15T02:14:15.428Z,20.38
2023-02-15T02:17:07.602Z,21.75
2023-02-15T02:20:15.552Z,21.80
2023-02-15T02:23:03.524Z,21.83
2023-02-15T02:26:00.321Z,21.60
2023-02-15T02:29:04.224Z,22.52
2023-02-15T02:31:49.025Z,21.50
2023-02-15T02:34:18.147Z,22.50
2023-02-15T02:37:00.979Z,21.83
2023-02-15T02:39:35.884Z,22.65
2023-02-15T02:42:06.710Z,22.15
2023-02-15T02:44:43.155Z,23.70
2023-02-15T02:47:17.010Z,22.80
2023-02-15T02:49:44.689Z,23.97
2023-02-15T02:52:32.816Z,23.65
2023-02-15T02:55:00.105Z,24.25
2023-02-15T02:57:29.773Z,23.33
2023-02-15T02:59:59.602Z,22.60
2023-02-15T03:02:30.539Z,25.13
2023-02-15T03:05:03.136Z,24.40
2023-02-15T03:07:31.701Z,24.08
2023-02-15T03:10:04.508Z,24.40
2023-02-15T03:12:36.830Z,24.42
2023-02-15T03:15:03.119Z,25.17
2023-02-15T03:17:33.413Z,24.98
2023-02-15T03:20:03.994Z,26.02
2023-02-15T03:22:36.708Z,24.83
2023-02-15T03:25:14.520Z,25.25
2023-02-15T03:27:46.689Z,24.83
2023-02-15T03:30:16.013Z,25.15
2023-02-15T03:32:44.219Z,25.67
2023-02-15T03:35:10.894Z,25.15
2023-02-15T03:37:48.053Z,24.98
2023-02-15T03:40:22.770Z,25.55
2023-02-15T03:43:01.914Z,24.83
2023-02-15T03:45:33.305Z,25.33
2023-02-15T03:48:02.151Z,25.23
2023-02-15T03:50:31.919Z,24.35
2023-02-15T03:53:00.633Z,23.73
2023-02-15T03:55:28.458Z,25.52
2023-02-15T03:57:54.762Z,24.60
2023-02-15T04:00:24.821Z,24.48
2023-02-15T04:03:17.373Z,25.23
2023-02-15T04:05:45.205Z,25.02
2023-02-15T04:08:12.339Z,26.33
2023-02-15T04:10:38.744Z,25.80
2023-02-15T04:13:05.109Z,27.17
2023-02-15T04:15:31.417Z,28.52
2023-02-15T04:17:57.828Z,26.92
2023-02-15T04:20:24.185Z,28.42
2023-02-15T04:22:50.503Z,26.52
2023-02-15T04:25:16.951Z,27.40
2023-02-15T04:27:46.405Z,25.45
2023-02-15T04:30:14.035Z,26.67
2023-02-15T04:32:40.545Z,26.33
2023-02-15T04:35:07.703Z,25.77
2023-02-15T04:37:34.338Z,27.25
2023-02-15T04:40:00.656Z,27.67
2023-02-15T04:42:27.361Z,27.50
2023-02-15T04:44:54.407Z,27.20
2023-02-15T04:47:20.937Z,26.63
2023-02-15T04:49:47.264Z,27.05
2023-02-15T04:52:13.706Z,25.83
2023-02-15T04:54:40.032Z,26.33
2023-02-15T04:57:06.826Z,27.02
2023-02-15T04:59:33.341Z,26.60
2023-02-15T05:01:59.692Z,27.58
2023-02-15T05:04:26.078Z,27.55
2023-02-15T05:06:52.409Z,26.92
2023-02-15T05:09:18.704Z,26.30
2023-02-15T05:11:45.025Z,26.30
2023-02-15T05:14:11.330Z,26.42
2023-02-15T05:16:37.802Z,26.73
2023-02-15T05:19:04.520Z,25.85
2023-02-15T05:21:30.991Z,25.50
2023-02-15T05:23:57.408Z,25.20
2023-02-15T05:26:25.334Z,26.42
2023-02-15T05:28:51.647Z,26.13
2023-02-15T05:31:19.632Z,26.42
2023-02-15T05:33:46.450Z,26.58
2023-02-15T05:36:13.042Z,27.13
2023-02-15T05:38:39.810Z,24.55
2023-02-15T05:41:07.454Z,25.38
2023-02-15T05:43:34.259Z,25.20
2023-02-15T05:46:01.561Z,25.05
2023-02-15T05:48:28.841Z,23.95
2023-02-15T05:51:09.784Z,24.05
2023-02-15T05:53:38.772Z,25.30
2023-02-15T05:56:07.241Z,24.33
2023-02-15T05:58:36.882Z,25.08
2023-02-15T06:01:15.040Z,24.52
2023-02-15T06:03:41.551Z,25.90
2023-02-15T06:06:08.228Z,24.65
2023-02-15T06:08:36.380Z,24.10
2023-02-15T06:11:02.868Z,24.38
2023-02-15T06:13:29.524Z,25.70
2023-02-15T06:15:56.136Z,23.98
2023-02-15T06:18:22.539Z,23.45
2023-02-15T06:20:49.687Z,25.13
2023-02-15T06:23:16.242Z,26.08
2023-02-15T06:25:42.635Z,26.30
2023-02-15T06:28:09.093Z,26.05
2023-02-15T06:30:35.413Z,27.50
2023-02-15T06:33:01.736Z,26.60
2023-02-15T06:35:28.275Z,27.17
2023-02-15T06:37:54.616Z,26.33
2023-02-15T06:40:21.055Z,27.75
2023-02-15T06:42:47.404Z,27.63
2023-02-15T06:45:14.318Z,28.88
2023-02-15T06:47:40.759Z,27.20
2023-02-15T06:50:08.231Z,29.02
2023-02-15T06:52:34.788Z,27.30
2023-02-15T06:55:01.279Z,27.73
2023-02-15T06:57:27.641Z,27.02
2023-02-15T06:59:53.988Z,26.98
2023-02-15T07:02:20.471Z,28.02
2023-02-15T07:04:47.025Z,28.38
2023-02-15T07:07:13.831Z,26.30
2023-02-15T07:09:40.407Z,28.10
2023-02-15T07:12:07.385Z,26.90
2023-02-15T07:14:33.906Z,28.67
2023-02-15T07:17:00.338Z,28.35
2023-02-15T07:19:26.877Z,29.20
2023-02-15T07:21:53.305Z,28.35
2023-02-15T07:24:19.940Z,27.13
2023-02-15T07:26:46.381Z,28.92
2023-02-15T07:29:12.815Z,28.10
2023-02-15T07:31:39.551Z,26.85
2023-02-15T07:34:07.518Z,26.67
2023-02-15T07:36:33.974Z,25.98
2023-02-15T07:39:00.303Z,24.90
2023-02-15T07:41:26.750Z,26.25
2023-02-15T07:43:53.115Z,27.98
2023-02-15T07:46:19.690Z,26.95
2023-02-15T07:48:46.349Z,25.70
2023-02-15T07:51:13.637Z,26.42
2023-02-15T07:53:40.382Z,26.73
2023-02-15T07:56:10.829Z,24.73
2023-02-15T07:58:37.704Z,26.40
2023-02-15T08:01:04.032Z,26.23
2023-02-15T08:03:30.431Z,25.80
2023-02-15T08:05:59.776Z,24.77
2023-02-15T08:08:27.917Z,26.35
2023-02-15T08:11:14.948Z,23.77
2023-02-15T08:13:43.794Z,24.33
2023-02-15T08:16:12.416Z,24.02
2023-02-15T08:18:40.521Z,25.00
2023-02-15T08:21:06.871Z,24.25
2023-02-15T08:23:33.826Z,24.77
2023-02-15T08:26:01.535Z,25.17
2023-02-15T08:28:28.041Z,25.42
2023-02-15T08:30:54.467Z,23.83
2023-02-15T08:33:20.858Z,23.00
2023-02-15T08:35:47.381Z,23.02
2023-02-15T08:38:13.790Z,21.80
2023-02-15T08:40:40.251Z,21.38
2023-02-15T08:43:06.786Z,21.17
2023-02-15T08:45:33.250Z,22.88
2023-02-15T08:47:59.689Z,22.08
2023-02-15T08:50:26.262Z,21.70
2023-02-15T08:52:52.667Z,20.95
2023-02-15T08:55:19.179Z,19.92
2023-02-15T08:57:45.677Z,20.05
2023-02-15T09:00:12.596Z,19.70
2023-02-15T09:02:39.025Z,19.42
2023-02-15T09:05:05.790Z,20.45
2023-02-15T09:07:32.312Z,19.63
2023-02-15T09:09:58.988Z,20.13
2023-02-15T09:12:25.409Z,19.65
2023-02-15T09:14:51.835Z,18.27
2023-02-15T09:17:18.229Z,19.55
2023-02-15T09:19:44.547Z,18.75
2023-02-15T09:22:11.021Z,17.85
2023-02-15T09:24:37.488Z,18.73
2023-02-15T09:27:04.055Z,17.63
2023-02-15T09:29:30.561Z,17.55
2023-02-15T09:31:57.213Z,16.42
2023-02-15T09:34:24.158Z,17.23
2023-02-15T09:36:51.365Z,17.55
2023-02-15T09:39:20.853Z,17.17
2023-02-15T09:41:53.079Z,16.52
2023-02-15T09:44:32.147Z,17.15
2023-02-15T09:47:11.575Z,16.55
2023-02-15T09:50:04.018Z,16.48
2023-02-15T09:52:36.493Z,15.77
2023-02-15T09:55:02.800Z,17.13
2023-02-15T09:58:17.109Z,16.48
2023-02-15T10:01:01.978Z,15.70
2023-02-15T10:03:46.701Z,17.23
2023-02-15T10:06:27.654Z,16.52
2023-02-15T10:09:22.034Z,16.48
2023-02-15T10:11:51.236Z,15.75
2023-02-15T10:14:29.633Z,15.02
2023-02-15T10:17:33.462Z,16.30
2023-02-15T10:20:18.081Z,15.75
2023-02-15T10:23:02.700Z,15.20
2023-02-15T10:25:49.725Z,13.02
2023-02-15T10:28:24.368Z,15.30
2023-02-15T10:30:55.019Z,14.43
2023-02-15T10:33:43.793Z,15.52
2023-02-15T10:36:27.625Z,15.38
2023-02-15T10:38:53.945Z,15.95
2023-02-15T10:41:47.749Z,16.10
2023-02-15T10:44:46.191Z,16.85
2023-02-15T10:47:28.888Z,16.30
2023-02-15T10:50:18.680Z,14.55
2023-02-15T10:53:06.290Z,15.30
2023-02-15T10:55:48.036Z,16.55
2023-02-15T10:58:37.377Z,15.80
2023-02-15T11:01:18.597Z,14.82
2023-02-15T11:04:06.948Z,14.25
2023-02-15T11:06:37.187Z,14.20
2023-02-15T11:09:10.635Z,14.82
2023-02-15T11:11:39.569Z,14.20
2023-02-15T11:14:28.934Z,15.75
2023-02-15T11:17:02.875Z,14.88
2023-02-15T11:19:42.723Z,14.63
2023-02-15T11:22:11.314Z,15.00
2023-02-15T11:24:45.385Z,14.40
2023-02-15T11:27:25.181Z,13.68
2023-02-15T11:30:05.687Z,14.43
2023-02-15T11:32:36.484Z,15.73
2023-02-15T11:35:12.070Z,14.65
2023-02-15T11:37:49.590Z,15.07
2023-02-15T11:40:27.707Z,14.35
2023-02-15T11:42:57.569Z,14.48
2023-02-15T11:45:30.019Z,14.77
2023-02-15T11:47:58.465Z,13.93
2023-02-15T11:50:28.535Z,15.18
2023-02-15T11:53:02.564Z,14.85
2023-02-15T11:55:29.693Z,14.65
2023-02-15T11:58:04.017Z,15.57
2023-02-15T12:00:37.897Z,11.40
2023-02-15T12:03:13.612Z,14.43
2023-02-15T12:05:43.858Z,14.43
2023-02-15T12:08:17.669Z,14.40
2023-02-15T12:11:06.335Z,14.20
2023-02-15T12:13:32.611Z,14.65
2023-02-15T12:16:05.518Z,14.32
2023-02-15T12:18:39.370Z,14.05
2023-02-15T12:21:12.217Z,14.30
2023-02-15T12:23:56.187Z,15.00
2023-02-15T12:26:31.281Z,13.77
2023-02-15T12:29:01.321Z,13.85
2023-02-15T12:31:33.173Z,14.57
2023-02-15T12:34:03.694Z,13.82
2023-02-15T12:36:33.886Z,13.95
2023-02-15T12:39:20.091Z,13.40
2023-02-15T12:42:00.109Z,14.30
2023-02-15T12:44:31.834Z,14.15
2023-02-15T12:47:06.642Z,13.43
2023-02-15T12:49:38.025Z,14.82
2023-02-15T12:52:25.606Z,13.90
2023-02-15T12:54:52.422Z,13.27
2023-02-15T12:57:33.976Z,14.35
2023-02-15T13:00:03.958Z,13.38
2023-02-15T13:02:44.090Z,13.80
2023-02-15T13:05:27.688Z,13.75
2023-02-15T13:08:00.487Z,14.63
2023-02-15T13:10:31.641Z,14.70
2023-02-15T13:12:58.570Z,14.45
2023-02-15T13:15:36.589Z,14.10
2023-02-15T13:18:05.155Z,13.73
2023-02-15T13:20:35.211Z,13.95
2023-02-15T13:23:12.606Z,13.00
2023-02-15T13:25:46.679Z,13.75
2023-02-15T13:28:16.004Z,13.40
2023-02-15T13:30:48.076Z,13.68
2023-02-15T13:33:26.173Z,13.57
2023-02-15T13:36:18.081Z,12.82
2023-02-15T13:38:52.866Z,13.88
2023-02-15T13:41:49.297Z,14.73
2023-02-15T13:44:33.414Z,12.95
2023-02-15T13:47:23.421Z,13.07
2023-02-15T13:49:55.548Z,12.55
2023-02-15T13:52:24.521Z,13.05
2023-02-15T13:55:21.740Z,13.15
2023-02-15T13:58:17.456Z,12.75
2023-02-15T14:03:45.126Z,12.10
2023-02-15T14:06:39.468Z,13.18
2023-02-15T14:09:18.475Z,13.32
2023-02-15T14:12:10.070Z,12.55
2023-02-15T14:14:48.399Z,13.75
2023-02-15T14:17:35.403Z,12.60
2023-02-15T14:20:17.280Z,12.77
2023-02-15T14:22:48.440Z,12.70
2023-02-15T14:25:30.092Z,13.07
2023-02-15T14:28:15.545Z,13.00
2023-02-15T14:30:51.393Z,14.15
2023-02-15T14:33:40.069Z,13.07
2023-02-15T14:36:09.193Z,13.75
2023-02-15T14:38:47.340Z,12.80
2023-02-15T14:41:25.328Z,13.55
2023-02-15T14:44:16.881Z,13.32
2023-02-15T14:46:54.206Z,12.48
2023-02-15T14:49:22.425Z,12.90
2023-02-15T14:51:48.676Z,13.50
2023-02-15T14:54:17.928Z,12.98
2023-02-15T14:56:45.353Z,11.95
2023-02-15T14:59:21.787Z,13.00
2023-02-15T15:02:23.579Z,13.32
2023-02-15T15:04:52.660Z,12.75
2023-02-15T15:07:23.675Z,11.95
2023-02-15T15:10:01.399Z,14.20
2023-02-15T15:12:27.661Z,13.55
2023-02-15T15:14:54.739Z,12.63
2023-02-15T15:17:36.362Z,13.05
2023-02-15T15:20:04.610Z,12.52
2023-02-15T15:22:32.741Z,12.90
2023-02-15T15:25:01.265Z,12.55
2023-02-15T15:27:52.038Z,12.90
2023-02-15T15:30:18.355Z,13.75
2023-02-15T15:32:55.972Z,13.00
2023-02-15T15:35:48.832Z,13.70
2023-02-15T15:38:38.870Z,13.95
2023-02-15T15:41:37.583Z,14.32
2023-02-15T15:44:09.780Z,13.85
2023-02-15T15:47:00.793Z,13.40
2023-02-15T15:49:32.237Z,13.48
2023-02-15T15:52:03.095Z,13.50
2023-02-15T15:54:30.773Z,13.20
2023-02-15T15:57:03.428Z,13.73
2023-02-15T15:59:33.555Z,13.80
2023-02-15T16:02:07.698Z,14.20
2023-02-15T16:04:35.677Z,14.82
2023-02-15T16:07:16.965Z,14.20
2023-02-15T16:10:03.622Z,14.13
2023-02-15T16:12:33.772Z,14.23
2023-02-15T16:15:05.233Z,13.80
2023-02-15T16:17:34.066Z,13.32
2023-02-15T16:20:16.296Z,15.10
2023-02-15T16:22:42.745Z,15.32
2023-02-15T16:25:43.469Z,14.88
2023-02-15T16:28:13.275Z,14.70
2023-02-15T16:30:40.233Z,15.23
2023-02-15T16:33:17.328Z,15.45
2023-02-15T16:35:57.791Z,15.38
2023-02-15T16:38:55.067Z,15.80
2023-02-15T16:41:27.417Z,15.32
2023-02-15T16:43:57.031Z,14.75
2023-02-15T16:46:28.115Z,16.38
2023-02-15T16:48:58.758Z,14.95
2023-02-15T16:51:28.783Z,15.93
2023-02-15T16:53:56.900Z,15.90
2023-02-15T16:56:30.111Z,15.27
2023-02-15T16:58:57.592Z,16.75
2023-02-15T17:01:27.305Z,16.10
2023-02-15T17:04:13.393Z,16.55
2023-02-15T17:06:39.804Z,16.17
2023-02-15T17:09:14.928Z,16.30
2023-02-15T17:11:42.837Z,16.83
2023-02-15T17:14:09.068Z,15.60
2023-02-15T17:16:54.510Z,17.15
2023-02-15T17:19:23.685Z,16.33
2023-02-15T17:21:53.471Z,45.55
2023-02-15T17:24:29.258Z,24.55
2023-02-15T17:26:59.249Z,16.75
2023-02-15T17:29:38.518Z,18.42
2023-02-15T17:32:12.919Z,17.42
2023-02-15T17:34:59.630Z,17.35
2023-02-15T17:37:44.209Z,18.75
2023-02-15T17:40:28.007Z,17.88
2023-02-15T17:42:54.567Z,18.40
2023-02-15T17:45:22.521Z,17.58
2023-02-15T17:47:50.216Z,17.48
2023-02-15T17:50:20.953Z,17.10
2023-02-15T17:52:47.666Z,17.05
2023-02-15T17:55:16.706Z,17.08
2023-02-15T17:57:42.996Z,17.73
2023-02-15T18:00:14.598Z,15.65
2023-02-15T18:02:41.428Z,16.80
2023-02-15T18:05:14.768Z,16.58
2023-02-15T18:07:41.079Z,15.13
2023-02-15T18:10:17.062Z,16.13
2023-02-15T18:12:43.364Z,15.88
2023-02-15T18:15:12.291Z,16.20
2023-02-15T18:17:42.634Z,16.20
2023-02-15T18:20:18.006Z,16.98
2023-02-15T18:22:44.970Z,16.85
2023-02-15T18:25:16.181Z,15.75
2023-02-15T18:27:42.695Z,15.55
2023-02-15T18:30:14.681Z,16.98
2023-02-15T18:32:41.534Z,16.67
2023-02-15T18:35:08.106Z,17.33
2023-02-15T18:37:34.664Z,18.02
2023-02-15T18:40:02.148Z,17.88
2023-02-15T18:42:34.240Z,16.92
2023-02-15T18:45:21.949Z,17.15
2023-02-15T18:47:48.554Z,17.13
2023-02-15T18:50:20.897Z,18.33
2023-02-15T18:52:49.292Z,18.42
2023-02-15T18:55:28.249Z,18.52
2023-02-15T18:57:57.098Z,18.50
2023-02-15T19:00:32.366Z,18.48
2023-02-15T19:03:00.036Z,18.48
2023-02-15T19:05:28.930Z,19.30
2023-02-15T19:07:56.972Z,20.08
2023-02-15T19:10:26.024Z,18.60
2023-02-15T19:12:53.688Z,19.10
2023-02-15T19:15:28.299Z,19.15
2023-02-15T19:17:54.687Z,18.65
2023-02-15T19:20:24.322Z,19.55
2023-02-15T19:22:53.099Z,19.88
2023-02-15T19:25:25.602Z,19.48
2023-02-15T19:27:53.344Z,20.33
2023-02-15T19:30:24.437Z,20.42
2023-02-15T19:32:50.821Z,20.08
2023-02-15T19:35:19.830Z,21.10
2023-02-15T19:37:50.051Z,20.90
2023-02-15T19:40:36.995Z,20.60
2023-02-15T19:43:03.756Z,21.15
2023-02-15T19:45:31.531Z,21.55
2023-02-15T19:48:00.283Z,20.88
2023-02-15T19:50:30.698Z,20.85
2023-02-15T19:52:57.430Z,20.65
2023-02-15T19:55:29.994Z,20.80
2023-02-15T19:57:58.026Z,21.40
2023-02-15T20:00:26.971Z,22.05
2023-02-15T20:02:53.755Z,21.35
2023-02-15T20:05:20.437Z,22.27
2023-02-15T20:07:49.142Z,21.58
2023-02-15T20:10:20.597Z,22.48
2023-02-15T20:12:47.691Z,22.52
2023-02-15T20:15:26.181Z,21.60
2023-02-15T20:17:52.998Z,22.10
2023-02-15T20:20:20.572Z,21.13
2023-02-15T20:22:49.450Z,21.30
2023-02-15T20:25:20.468Z,23.17
2023-02-15T20:27:47.910Z,22.20
2023-02-15T20:30:17.223Z,23.27
2023-02-15T20:32:44.042Z,23.25
2023-02-15T20:35:15.433Z,22.42
2023-02-15T20:37:42.181Z,22.65
2023-02-15T20:40:17.231Z,22.00
2023-02-15T20:42:44.163Z,22.98
2023-02-15T20:45:21.149Z,22.13
2023-02-15T20:47:52.090Z,23.35
2023-02-15T20:50:27.184Z,22.90
2023-02-15T20:52:55.932Z,22.77
2023-02-15T20:55:25.567Z,23.05
2023-02-15T20:57:52.009Z,22.95
2023-02-15T21:00:24.092Z,23.08
2023-02-15T21:02:58.954Z,24.02
2023-02-15T21:07:53.939Z,22.35
2023-02-15T21:10:31.445Z,22.52
2023-02-15T21:13:00.262Z,23.20
2023-02-15T21:15:32.768Z,23.63
2023-02-15T21:18:01.938Z,23.00
2023-02-15T21:20:30.286Z,21.98
2023-02-15T21:22:59.782Z,24.02
2023-02-15T21:25:35.035Z,23.77
2023-02-15T21:28:02.261Z,22.38
2023-02-15T21:30:29.363Z,24.08
2023-02-15T21:32:55.682Z,23.13
2023-02-15T21:35:22.733Z,22.77
2023-02-15T21:37:51.069Z,23.40
2023-02-15T21:40:25.826Z,23.15
2023-02-15T21:42:52.237Z,23.73
2023-02-15T21:45:19.005Z,23.27
2023-02-15T21:47:45.321Z,22.85
2023-02-15T21:50:22.944Z,21.50
2023-02-15T21:52:49.270Z,25.90
2023-02-15T21:55:16.268Z,22.27
2023-02-15T21:57:42.689Z,23.05
2023-02-15T22:00:20.045Z,22.88
2023-02-15T22:02:48.844Z,22.88
2023-02-15T22:05:29.981Z,22.80
2023-02-15T22:07:56.499Z,23.20
2023-02-15T22:10:28.654Z,23.88
2023-02-15T22:12:55.461Z,24.92
2023-02-15T22:15:23.894Z,22.85
2023-02-15T22:17:51.343Z,23.27
2023-02-15T22:20:20.275Z,22.58
2023-02-15T22:22:47.791Z,23.17
2023-02-15T22:25:17.048Z,22.05
2023-02-15T22:27:45.667Z,23.83
2023-02-15T22:30:21.412Z,24.27
2023-02-15T22:32:48.218Z,23.48
2023-02-15T22:35:21.701Z,23.30
2023-02-15T22:37:48.010Z,24.33
2023-02-15T22:40:16.321Z,23.33
2023-02-15T22:42:46.454Z,23.73
2023-02-15T22:45:19.132Z,23.67
2023-02-15T22:47:48.232Z,22.90
2023-02-15T22:50:20.382Z,23.08
2023-02-15T22:52:48.175Z,22.83
2023-02-15T22:55:20.102Z,22.15
2023-02-15T22:57:49.307Z,23.08
2023-02-15T23:00:18.671Z,22.80
2023-02-15T23:02:45.187Z,24.30
2023-02-15T23:05:17.508Z,23.50
2023-02-15T23:07:43.837Z,23.40
2023-02-15T23:10:10.414Z,23.98
2023-02-15T23:12:36.701Z,22.30
2023-02-15T23:15:03.147Z,24.60
2023-02-15T23:17:29.474Z,23.48
2023-02-15T23:19:55.778Z,23.90
2023-02-15T23:22:22.098Z,24.08
2023-02-15T23:24:52.504Z,23.08
2023-02-15T23:27:19.041Z,23.42
2023-02-15T23:29:46.141Z,24.58
2023-02-15T23:32:14.344Z,24.13
2023-02-15T23:34:42.265Z,23.63
2023-02-15T23:37:12.591Z,24.63
2023-02-15T23:39:38.917Z,23.42
2023-02-15T23:42:09.497Z,23.58
2023-02-15T23:44:36.549Z,23.33
2023-02-15T23:47:03.088Z,24.85
2023-02-15T23:49:29.388Z,23.58
2023-02-15T23:51:57.152Z,24.05
2023-02-15T23:54:26.224Z,24.02
2023-02-15T23:56:54.900Z,23.30
2023-02-15T23:59:27.654Z,24.27
